LZB977 LBSF-LBWN

Flight info

Callsign LZB977
Flight time 0h 34m
Altitude 27000
Route UMPIT DICXA
Aircraft A320/M-SDE3FGHIRWY/LB1

Departure

Time 2026-04-27 15:35
Airport Sofia Airport (LBSF)

Arrival

Time 2026-04-27 16:09
Airport Varna Airport (LBWN)
Time Latitude Longitude Altitude Speed Heading
2026-04-27 15:20 42.69001 23.40636 1759 ft 0 kts 195°
2026-04-27 15:28 42.68989 23.40631 1759 ft 3 kts 195°
2026-04-27 15:28 42.68967 23.40611 1759 ft 4 kts 242°
2026-04-27 15:28 42.68966 23.40562 1759 ft 5 kts 279°
2026-04-27 15:29 42.68978 23.40504 1759 ft 7 kts 287°
2026-04-27 15:29 42.68994 23.40436 1759 ft 8 kts 286°
2026-04-27 15:29 42.69010 23.40353 1759 ft 9 kts 285°
2026-04-27 15:29 42.69029 23.40260 1759 ft 10 kts 282°
2026-04-27 15:30 42.69052 23.40163 1759 ft 11 kts 288°
2026-04-27 15:30 42.69076 23.40058 1759 ft 12 kts 286°
2026-04-27 15:30 42.69093 23.39941 1759 ft 12 kts 276°
2026-04-27 15:30 42.69114 23.39820 1759 ft 13 kts 285°
2026-04-27 15:31 42.69142 23.39697 1759 ft 13 kts 288°
2026-04-27 15:31 42.69175 23.39573 1759 ft 14 kts 305°
2026-04-27 15:31 42.69268 23.39551 1759 ft 14 kts
2026-04-27 15:31 42.69367 23.39562 1759 ft 14 kts
2026-04-27 15:32 42.69464 23.39573 1759 ft 14 kts
2026-04-27 15:32 42.69567 23.39585 1759 ft 13 kts
2026-04-27 15:32 42.69638 23.39592 1759 ft 4 kts
2026-04-27 15:32 42.69639 23.39592 1759 ft 0 kts
2026-04-27 15:33 42.69644 23.39592 1758 ft 1 kts
2026-04-27 15:33 42.69661 23.39594 1758 ft 4 kts
2026-04-27 15:33 42.69716 23.39602 1758 ft 10 kts
2026-04-27 15:34 42.69769 23.39651 1758 ft 10 kts 84°
2026-04-27 15:34 42.69768 23.39694 1758 ft 0 kts 94°
2026-04-27 15:34 42.69768 23.39699 1758 ft 6 kts 94°
2026-04-27 15:34 42.69743 23.40124 1758 ft 80 kts 94°
2026-04-27 15:35 42.69681 23.41181 1758 ft 141 kts 95°
2026-04-27 15:35 42.69590 23.42713 1856 ft 178 kts 94°
2026-04-27 15:35 42.69489 23.44384 2479 ft 177 kts 93°
2026-04-27 15:35 42.69383 23.46020 3163 ft 175 kts 93°
2026-04-27 15:36 42.69301 23.47666 3747 ft 176 kts 86°
2026-04-27 15:36 42.69468 23.49273 4309 ft 176 kts 76°
2026-04-27 15:36 42.69762 23.50903 4879 ft 178 kts 74°
2026-04-27 15:36 42.70073 23.52572 5297 ft 190 kts 75°
2026-04-27 15:37 42.70399 23.54400 5674 ft 207 kts 76°
2026-04-27 15:37 42.70734 23.56377 6050 ft 224 kts 76°
2026-04-27 15:37 42.71086 23.58514 6453 ft 241 kts 77°
2026-04-27 15:37 42.71465 23.60869 6800 ft 264 kts 76°
2026-04-27 15:38 42.71862 23.63356 7273 ft 281 kts 76°
2026-04-27 15:38 42.72282 23.66013 8003 ft 289 kts 77°
2026-04-27 15:38 42.72702 23.68694 8837 ft 293 kts 76°
2026-04-27 15:38 42.73120 23.71378 9610 ft 297 kts 75°
2026-04-27 15:39 42.73554 23.74160 10404 ft 301 kts 75°
2026-04-27 15:39 42.73997 23.76965 10953 ft 314 kts 75°
2026-04-27 15:39 42.74466 23.79943 11337 ft 332 kts 75°
2026-04-27 15:39 42.74970 23.83139 11711 ft 350 kts 76°
2026-04-27 15:40 42.75486 23.86417 12196 ft 362 kts 76°
2026-04-27 15:40 42.76009 23.89771 12910 ft 365 kts 76°
2026-04-27 15:40 42.76540 23.93200 13650 ft 369 kts 76°
2026-04-27 15:40 42.77073 23.96638 14351 ft 372 kts 76°
2026-04-27 15:41 42.77604 24.00076 15032 ft 376 kts 76°
2026-04-27 15:41 42.78141 24.03560 15689 ft 379 kts 76°
2026-04-27 15:41 42.78684 24.07087 16319 ft 384 kts 77°
2026-04-27 15:41 42.79234 24.10666 16944 ft 387 kts 77°
2026-04-27 15:42 42.79782 24.14240 17532 ft 392 kts 77°
2026-04-27 15:42 42.80344 24.17911 18129 ft 396 kts 77°
2026-04-27 15:42 42.80899 24.21566 18710 ft 400 kts 77°
2026-04-27 15:42 42.81462 24.25274 19303 ft 403 kts 77°
2026-04-27 15:43 42.82032 24.29042 19886 ft 406 kts 77°
2026-04-27 15:43 42.82604 24.32826 20450 ft 409 kts 77°
2026-04-27 15:43 42.83176 24.36611 20996 ft 413 kts 77°
2026-04-27 15:43 42.83756 24.40457 21545 ft 416 kts 77°
2026-04-27 15:44 42.84343 24.44354 22092 ft 419 kts 77°
2026-04-27 15:44 42.84925 24.48235 22609 ft 422 kts 77°
2026-04-27 15:44 42.85515 24.52183 23130 ft 425 kts 77°
2026-04-27 15:44 42.86100 24.56106 23635 ft 428 kts 77°
2026-04-27 15:45 42.86699 24.60136 24114 ft 431 kts 77°
2026-04-27 15:45 42.87295 24.64149 24558 ft 434 kts 77°
2026-04-27 15:45 42.87891 24.68175 24992 ft 437 kts 77°
2026-04-27 15:45 42.88496 24.72293 25395 ft 441 kts 77°
2026-04-27 15:46 42.89101 24.76411 25784 ft 444 kts 77°
2026-04-27 15:46 42.89706 24.80541 26191 ft 447 kts 77°
2026-04-27 15:46 42.90313 24.84685 26563 ft 450 kts 77°
2026-04-27 15:46 42.90929 24.88909 26929 ft 453 kts 77°
2026-04-27 15:47 42.91539 24.93101 27133 ft 454 kts 77°
2026-04-27 15:47 42.92158 24.97358 27146 ft 454 kts 77°
2026-04-27 15:47 42.92766 25.01555 27149 ft 454 kts 77°
2026-04-27 15:47 42.93380 25.05794 27153 ft 462 kts 77°
2026-04-27 15:48 42.94008 25.10144 27150 ft 472 kts 77°
2026-04-27 15:48 42.94649 25.14597 27149 ft 482 kts 77°
2026-04-27 15:48 42.95292 25.19083 27150 ft 487 kts 77°
2026-04-27 15:49 42.96588 25.28175 27156 ft 488 kts 77°
2026-04-27 15:49 42.97232 25.32712 27158 ft 489 kts 77°
2026-04-27 15:49 42.97876 25.37260 27158 ft 489 kts 77°
2026-04-27 15:49 42.98518 25.41818 27159 ft 489 kts 77°
2026-04-27 15:50 42.99164 25.46410 27160 ft 489 kts 77°
2026-04-27 15:50 42.99799 25.50936 27161 ft 489 kts 77°
2026-04-27 15:50 43.00438 25.55495 27165 ft 489 kts 77°
2026-04-27 15:50 43.01081 25.60090 27161 ft 489 kts 77°
2026-04-27 15:51 43.01716 25.64614 27167 ft 489 kts 78°
2026-04-27 15:51 43.02325 25.69191 27039 ft 483 kts 79°
2026-04-27 15:51 43.02903 25.73640 26583 ft 476 kts 79°
2026-04-27 15:51 43.03474 25.78059 26050 ft 468 kts 79°
2026-04-27 15:52 43.04031 25.82359 25481 ft 462 kts 79°
2026-04-27 15:52 43.04596 25.86708 24864 ft 458 kts 79°
2026-04-27 15:52 43.05150 25.90985 24243 ft 453 kts 79°
2026-04-27 15:52 43.05691 25.95161 23625 ft 450 kts 79°
2026-04-27 15:53 43.06231 25.99347 23018 ft 446 kts 79°
2026-04-27 15:53 43.06769 26.03516 22399 ft 442 kts 79°
2026-04-27 15:53 43.07294 26.07598 21792 ft 439 kts 79°
2026-04-27 15:53 43.07820 26.11698 21196 ft 435 kts 79°
2026-04-27 15:54 43.08333 26.15712 20611 ft 432 kts 79°
2026-04-27 15:54 43.08847 26.19743 20047 ft 428 kts 79°
2026-04-27 15:54 43.09356 26.23739 19465 ft 424 kts 79°
2026-04-27 15:54 43.09853 26.27659 18868 ft 421 kts 79°
2026-04-27 15:55 43.10360 26.31632 18276 ft 418 kts 79°
2026-04-27 15:55 43.10695 26.34213 17894 ft 416 kts 79°
2026-04-27 15:55 43.11363 26.39387 17146 ft 411 kts 79°
2026-04-27 15:55 43.11852 26.43228 16594 ft 408 kts 79°
2026-04-27 15:56 43.12325 26.46982 16064 ft 404 kts 79°
2026-04-27 15:56 43.12799 26.50766 15520 ft 401 kts 79°
2026-04-27 15:56 43.13260 26.54471 14996 ft 397 kts 79°
2026-04-27 15:56 43.13725 26.58220 14449 ft 394 kts 79°
2026-04-27 15:57 43.14176 26.61861 13916 ft 390 kts 79°
2026-04-27 15:57 43.14626 26.65516 13406 ft 386 kts 79°
2026-04-27 15:57 43.15065 26.69096 12861 ft 383 kts 79°
2026-04-27 15:57 43.15506 26.72710 12365 ft 379 kts 79°
2026-04-27 15:58 43.15931 26.76197 11989 ft 372 kts 79°
2026-04-27 15:58 43.16350 26.79650 11626 ft 365 kts 79°
2026-04-27 15:58 43.16763 26.83052 11241 ft 359 kts 79°
2026-04-27 15:58 43.17169 26.86414 10845 ft 353 kts 79°
2026-04-27 15:59 43.17562 26.89666 10467 ft 348 kts 79°
2026-04-27 15:59 43.17956 26.92930 10135 ft 341 kts 79°
2026-04-27 15:59 43.18339 26.96100 9780 ft 335 kts 79°
2026-04-27 15:59 43.18711 26.99200 9450 ft 330 kts 79°
2026-04-27 16:00 43.19082 27.02296 9093 ft 325 kts 79°
2026-04-27 16:00 43.19323 27.04313 8856 ft 322 kts 79°
2026-04-27 16:00 43.19797 27.08292 8397 ft 315 kts 79°
2026-04-27 16:00 43.20150 27.11254 8043 ft 311 kts 79°
2026-04-27 16:01 43.20492 27.14146 7690 ft 307 kts 79°
2026-04-27 16:01 43.20831 27.17005 7343 ft 303 kts 79°
2026-04-27 16:01 43.21166 27.19840 6978 ft 300 kts 79°
2026-04-27 16:01 43.21494 27.22631 6637 ft 296 kts 79°
2026-04-27 16:02 43.21823 27.25431 6285 ft 293 kts 79°
2026-04-27 16:02 43.22148 27.28182 5928 ft 290 kts 79°
2026-04-27 16:02 43.22464 27.30860 5569 ft 287 kts 80°
2026-04-27 16:02 43.22780 27.33560 5222 ft 284 kts 80°
2026-04-27 16:03 43.23093 27.36236 4864 ft 281 kts 80°
2026-04-27 16:03 43.23396 27.38849 4511 ft 278 kts 81°
2026-04-27 16:03 43.23696 27.41439 4287 ft 270 kts 81°
2026-04-27 16:03 43.23986 27.43956 4080 ft 262 kts 81°
2026-04-27 16:04 43.24268 27.46408 3871 ft 259 kts 81°
2026-04-27 16:04 43.24546 27.48831 3667 ft 258 kts 81°
2026-04-27 16:04 43.24821 27.51212 3464 ft 251 kts 81°
2026-04-27 16:04 43.25092 27.53563 3263 ft 244 kts 82°
2026-04-27 16:05 43.25352 27.55845 3062 ft 237 kts 83°
2026-04-27 16:05 43.25384 27.58020 3007 ft 223 kts 95°
2026-04-27 16:05 43.25217 27.60093 3008 ft 215 kts 97°
2026-04-27 16:05 43.25029 27.62078 2995 ft 204 kts 97°
2026-04-27 16:06 43.24851 27.63975 2908 ft 201 kts 97°
2026-04-27 16:06 43.24677 27.65934 2445 ft 211 kts 97°
2026-04-27 16:06 43.24515 27.67906 2083 ft 202 kts 98°
2026-04-27 16:06 43.24358 27.69697 1904 ft 181 kts 98°
2026-04-27 16:07 43.24209 27.71327 1664 ft 162 kts 99°
2026-04-27 16:07 43.24074 27.72798 1405 ft 148 kts 99°
2026-04-27 16:07 43.23954 27.74116 1185 ft 133 kts 99°
2026-04-27 16:07 43.23835 27.75352 1008 ft 130 kts 100°
2026-04-27 16:08 43.23711 27.76577 882 ft 130 kts 98°
2026-04-27 16:08 43.23620 27.77811 700 ft 130 kts 98°
2026-04-27 16:08 43.23517 27.79044 532 ft 129 kts 99°
2026-04-27 16:08 43.23399 27.80254 351 ft 128 kts 98°
2026-04-27 16:09 43.23297 27.81432 221 ft 115 kts 99°
2026-04-27 16:09 43.23154 27.82988 241 ft 48 kts 97°
2026-04-27 16:09 43.23141 27.83243 241 ft 16 kts 70°
2026-04-27 16:10 43.23339 27.83312 246 ft 13 kts
2026-04-27 16:10 43.23515 27.83328 249 ft 11 kts 332°
2026-04-27 16:11 43.23543 27.83227 250 ft 12 kts 276°
2026-04-27 16:11 43.23552 27.82977 247 ft 13 kts 259°
2026-04-27 16:12 43.23549 27.82685 241 ft 12 kts 277°
2026-04-27 16:12 43.23558 27.82587 240 ft 7 kts 282°
2026-04-27 16:12 43.23603 27.82641 242 ft 0 kts 58°
2026-04-27 16:13 43.23608 27.82651 244 ft 0 kts 58°